Time;durP1;ratioP1;P1;durP2;ratioP2;P2;SDS_P1;SDS_P2;PMS_P1;PMS_P2;Temp;Humidity;BMP_temperature;BMP_pressure;BME280_temperature;BME280_humidity;BME280_pressure;Samples;Min_cycle;Max_cycle;Signal;HPM_P1;HPM_P2
2022/11/28 00:01:42;;;;;;;1.40;1.00;;;9.80;99.90;;;;;;5046770;28;20040;-74
2022/11/28 00:04:08;;;;;;;0.90;0.80;;;9.80;99.90;;;;;;5040856;28;20118;-74
2022/11/28 00:06:37;;;;;;;1.92;1.15;;;9.70;99.90;;;;;;5048081;28;20382;-74
2022/11/28 00:09:04;;;;;;;1.80;0.93;;;9.60;99.90;;;;;;5034122;28;20048;-74
2022/11/28 00:11:31;;;;;;;0.65;0.50;;;9.60;99.90;;;;;;5048407;28;20048;-74
2022/11/28 00:13:58;;;;;;;1.95;1.23;;;9.50;99.90;;;;;;5045980;28;20049;-74
2022/11/28 00:16:24;;;;;;;1.35;0.90;;;9.50;99.90;;;;;;5049609;28;20536;-74
2022/11/28 00:18:52;;;;;;;1.27;0.70;;;9.40;99.90;;;;;;5044447;28;20419;-75
2022/11/28 00:21:19;;;;;;;0.73;0.60;;;9.30;99.90;;;;;;5044064;28;20052;-74
2022/11/28 00:23:46;;;;;;;1.02;0.70;;;9.30;99.90;;;;;;5046432;28;20530;-74
2022/11/28 00:26:21;;;;;;;0.73;0.70;;;9.20;99.90;;;;;;5049001;28;20114;-74
2022/11/28 00:28:48;;;;;;;0.82;0.50;;;9.10;99.90;;;;;;5045731;28;20040;-74
2022/11/28 00:31:17;;;;;;;1.40;0.77;;;9.00;99.90;;;;;;5046012;28;20083;-74
2022/11/28 00:33:44;;;;;;;2.33;0.90;;;9.00;99.90;;;;;;5045592;28;20049;-74
2022/11/28 00:36:11;;;;;;;1.33;0.70;;;8.90;99.90;;;;;;5031225;28;20056;-74
2022/11/28 00:38:38;;;;;;;1.35;0.70;;;8.90;99.90;;;;;;5058821;28;20052;-74
2022/11/28 00:41:10;;;;;;;1.10;0.80;;;8.80;99.90;;;;;;5057326;28;20064;-74
2022/11/28 00:43:36;;;;;;;0.60;0.60;;;8.70;99.90;;;;;;5041326;28;20111;-74
2022/11/28 00:46:03;;;;;;;1.27;1.00;;;8.70;99.90;;;;;;5059199;28;20731;-74
2022/11/28 00:48:31;;;;;;;1.08;0.90;;;8.60;99.90;;;;;;5043173;28;20052;-74
2022/11/28 00:51:20;;;;;;;0.70;0.68;;;8.50;99.90;;;;;;5059886;28;20049;-74
2022/11/28 00:53:48;;;;;;;1.30;1.05;;;8.50;99.90;;;;;;5058972;28;20063;-74
2022/11/28 00:56:17;;;;;;;1.42;0.80;;;8.40;99.90;;;;;;5058836;28;20452;-75
2022/11/28 00:58:43;;;;;;;0.98;0.73;;;8.40;99.90;;;;;;5042234;28;20084;-74
2022/11/28 01:01:15;;;;;;;0.38;0.35;;;8.30;99.90;;;;;;5058878;28;20189;-75
2022/11/28 01:03:42;;;;;;;1.55;0.88;;;8.30;99.90;;;;;;5059943;28;20865;-75
2022/11/28 01:06:09;;;;;;;0.60;0.60;;;8.20;99.90;;;;;;5042743;28;20048;-74
2022/11/28 01:08:36;;;;;;;2.00;0.95;;;8.20;99.90;;;;;;5060138;28;20054;-74
2022/11/28 01:11:03;;;;;;;0.65;0.63;;;8.10;99.90;;;;;;5059751;28;20460;-75
2022/11/28 01:13:30;;;;;;;0.80;0.68;;;8.10;99.90;;;;;;5042644;28;20218;-74
2022/11/28 01:15:57;;;;;;;0.77;0.60;;;8.00;99.90;;;;;;5060060;28;20074;-74
2022/11/28 01:18:24;;;;;;;0.80;0.50;;;7.90;99.90;;;;;;5042095;28;20576;-74
2022/11/28 01:20:51;;;;;;;0.85;0.70;;;7.90;99.90;;;;;;5059254;28;20064;-74
2022/11/28 01:23:18;;;;;;;1.65;1.15;;;7.80;99.90;;;;;;5043554;28;20055;-74
2022/11/28 01:25:44;;;;;;;0.77;0.60;;;7.80;99.90;;;;;;5042764;28;20053;-74
2022/11/28 01:28:11;;;;;;;1.73;1.45;;;7.70;99.90;;;;;;5058702;28;20181;-74
2022/11/28 01:30:38;;;;;;;0.95;0.85;;;7.70;99.90;;;;;;5061048;28;20424;-74
2022/11/28 01:33:04;;;;;;;1.20;0.65;;;7.70;99.90;;;;;;5060037;28;20449;-74
2022/11/28 01:35:31;;;;;;;0.68;0.60;;;7.70;99.90;;;;;;5061928;28;20380;-74
2022/11/28 01:37:58;;;;;;;0.95;0.68;;;7.60;99.90;;;;;;5063753;28;20125;-74
2022/11/28 01:40:25;;;;;;;1.08;0.80;;;7.60;99.90;;;;;;5063502;28;20468;-74
2022/11/28 01:42:51;;;;;;;0.73;0.73;;;7.50;99.90;;;;;;5043803;28;20051;-74
2022/11/28 01:45:27;;;;;;;1.42;1.10;;;7.40;99.90;;;;;;5045936;28;20102;-74
2022/11/28 01:47:55;;;;;;;1.70;0.93;;;7.40;99.90;;;;;;5029514;28;20459;-74
2022/11/28 01:50:21;;;;;;;0.98;0.70;;;7.40;99.90;;;;;;5046962;28;20403;-74
2022/11/28 01:52:50;;;;;;;1.75;0.70;;;7.30;99.90;;;;;;5045668;28;20044;-74
2022/11/28 01:55:17;;;;;;;0.93;0.60;;;7.30;99.90;;;;;;5029772;28;20057;-74
2022/11/28 01:57:44;;;;;;;0.80;0.60;;;7.30;99.90;;;;;;5045204;28;20896;-74
2022/11/28 02:00:12;;;;;;;1.15;0.82;;;7.30;99.90;;;;;;5046524;28;20080;-74
2022/11/28 02:02:44;;;;;;;0.82;0.80;;;7.20;99.90;;;;;;5062107;28;20053;-74
2022/11/28 02:05:11;;;;;;;0.45;0.45;;;7.20;99.90;;;;;;5063114;28;20052;-75
2022/11/28 02:07:38;;;;;;;0.80;0.68;;;7.20;99.90;;;;;;5045863;28;20340;-75
2022/11/28 02:10:06;;;;;;;0.85;0.80;;;7.20;99.90;;;;;;5046282;28;20049;-75
2022/11/28 02:12:54;;;;;;;1.08;0.80;;;7.20;99.90;;;;;;5061623;28;20456;-74
2022/11/28 02:15:36;;;;;;;0.88;0.60;;;7.10;99.90;;;;;;5063741;28;20044;-75
2022/11/28 02:18:19;;;;;;;1.15;0.60;;;7.00;99.90;;;;;;5045174;28;20068;-74
2022/11/28 02:20:55;;;;;;;1.00;0.60;;;7.00;99.90;;;;;;5042070;28;20053;-75
2022/11/28 02:23:25;;;;;;;1.00;0.60;;;7.00;99.90;;;;;;5043578;28;20056;-74
2022/11/28 02:26:33;;;;;;;0.55;0.52;;;7.00;99.90;;;;;;5054506;28;20059;-75
2022/11/28 02:29:02;;;;;;;0.82;0.60;;;7.00;99.90;;;;;;5061314;28;20048;-75
2022/11/28 02:31:39;;;;;;;0.98;0.60;;;7.10;99.90;;;;;;5052155;28;20080;-74
2022/11/28 02:34:11;;;;;;;1.42;0.60;;;7.00;99.90;;;;;;5053910;28;20057;-74
2022/11/28 02:36:49;;;;;;;0.85;0.80;;;7.00;99.90;;;;;;5046618;28;20159;-75
2022/11/28 02:39:30;;;;;;;0.95;0.60;;;7.00;99.90;;;;;;5046642;28;20139;-75
2022/11/28 02:42:05;;;;;;;0.93;0.65;;;6.90;99.90;;;;;;5046722;28;20044;-74
2022/11/28 02:44:59;;;;;;;0.60;0.60;;;6.90;99.90;;;;;;5045875;28;20373;-74
2022/11/28 02:47:31;;;;;;;0.80;0.50;;;6.80;99.90;;;;;;5019275;28;20132;-74
2022/11/28 02:50:04;;;;;;;0.82;0.60;;;6.80;99.90;;;;;;5049136;28;20049;-74
2022/11/28 02:52:43;;;;;;;0.80;0.75;;;6.80;99.90;;;;;;5066083;28;20143;-74
2022/11/28 02:55:10;;;;;;;1.20;0.60;;;6.70;99.90;;;;;;5048579;28;20510;-74
2022/11/28 02:57:38;;;;;;;0.60;0.60;;;6.60;99.90;;;;;;5047297;28;20124;-74
2022/11/28 03:00:33;;;;;;;0.55;0.55;;;6.60;99.90;;;;;;5031754;28;20048;-74
2022/11/28 03:03:23;;;;;;;0.85;0.68;;;6.60;99.90;;;;;;5063783;28;20660;-74
2022/11/28 03:06:11;;;;;;;1.35;0.60;;;6.60;99.90;;;;;;5047831;28;20581;-74
2022/11/28 03:08:59;;;;;;;0.40;0.40;;;6.60;99.90;;;;;;5066079;28;20056;-74
2022/11/28 03:12:03;;;;;;;1.17;0.50;;;6.60;99.90;;;;;;5064357;28;20055;-74
2022/11/28 03:14:42;;;;;;;0.43;0.40;;;6.50;99.90;;;;;;5063193;28;20051;-74
2022/11/28 03:17:12;;;;;;;0.50;0.50;;;6.60;99.90;;;;;;5064133;28;20045;-74
2022/11/28 03:19:41;;;;;;;0.50;0.50;;;6.50;99.90;;;;;;5064967;28;20055;-75
2022/11/28 03:22:17;;;;;;;0.60;0.40;;;6.50;99.90;;;;;;5064004;28;20055;-74
2022/11/28 03:24:53;;;;;;;0.52;0.52;;;6.50;99.90;;;;;;5047189;28;20173;-74
2022/11/28 03:27:24;;;;;;;0.45;0.45;;;6.40;99.90;;;;;;5063714;28;20048;-74
2022/11/28 03:29:53;;;;;;;1.13;0.50;;;6.40;99.90;;;;;;5064021;28;20139;-74
2022/11/28 03:32:31;;;;;;;0.60;0.50;;;6.40;99.90;;;;;;5063708;28;20559;-75
2022/11/28 03:35:10;;;;;;;0.52;0.43;;;6.40;99.90;;;;;;5048311;28;20056;-74
2022/11/28 03:37:40;;;;;;;0.70;0.60;;;6.40;99.90;;;;;;5046948;28;20062;-74
2022/11/28 03:40:11;;;;;;;0.40;0.40;;;6.40;99.90;;;;;;5047520;28;20060;-74
2022/11/28 03:42:42;;;;;;;3.17;0.70;;;6.40;99.90;;;;;;5062859;28;20566;-74
2022/11/28 03:45:12;;;;;;;0.68;0.52;;;6.30;99.90;;;;;;5047611;28;20083;-74
2022/11/28 03:47:46;;;;;;;0.68;0.55;;;6.30;99.90;;;;;;5026545;28;20073;-74
2022/11/28 03:50:16;;;;;;;0.45;0.40;;;6.30;99.90;;;;;;5028102;28;20076;-75
2022/11/28 03:52:47;;;;;;;0.50;0.40;;;6.30;99.90;;;;;;5027081;28;20045;-74
2022/11/28 03:55:24;;;;;;;0.50;0.50;;;6.30;99.90;;;;;;5063677;28;20158;-74
2022/11/28 03:57:58;;;;;;;2.00;0.80;;;6.30;99.90;;;;;;5047267;28;20109;-74
2022/11/28 04:00:25;;;;;;;0.68;0.63;;;6.20;99.90;;;;;;5062690;28;20044;-74
2022/11/28 04:03:09;;;;;;;0.98;0.55;;;6.20;99.90;;;;;;5029329;28;20078;-74
2022/11/28 04:05:40;;;;;;;0.40;0.40;;;6.20;99.90;;;;;;5063854;28;20049;-74
2022/11/28 04:08:17;;;;;;;0.40;0.40;;;6.10;99.90;;;;;;5063017;28;20139;-75
2022/11/28 04:10:57;;;;;;;3.85;0.60;;;6.10;99.90;;;;;;5030691;28;20058;-74
2022/11/28 04:13:29;;;;;;;1.17;0.82;;;6.10;99.90;;;;;;5046277;28;20388;-74
2022/11/28 04:16:07;;;;;;;0.50;0.50;;;6.10;99.90;;;;;;5047900;28;20056;-74
2022/11/28 04:19:09;;;;;;;0.80;0.60;;;6.10;99.90;;;;;;5030856;28;20045;-74
2022/11/28 04:22:12;;;;;;;1.30;0.60;;;6.00;99.90;;;;;;5050436;28;20045;-75
2022/11/28 04:24:53;;;;;;;0.68;0.50;;;6.10;99.90;;;;;;5058595;28;20083;-74
2022/11/28 04:27:22;;;;;;;1.15;0.50;;;6.10;99.90;;;;;;5031032;28;20055;-74
2022/11/28 04:29:53;;;;;;;0.98;0.60;;;6.00;99.90;;;;;;5030386;28;20082;-74
2022/11/28 04:32:20;;;;;;;0.70;0.70;;;6.00;99.90;;;;;;5046596;28;20071;-74
2022/11/28 04:34:52;;;;;;;1.08;0.50;;;6.00;99.90;;;;;;5029918;28;20053;-73
2022/11/28 04:37:18;;;;;;;0.60;0.60;;;6.00;99.90;;;;;;5029943;28;20045;-74
2022/11/28 04:39:46;;;;;;;1.90;0.55;;;6.00;99.90;;;;;;5029599;28;20044;-73
2022/11/28 04:42:25;;;;;;;0.75;0.60;;;6.00;99.90;;;;;;5046571;28;20080;-74
2022/11/28 04:45:23;;;;;;;0.73;0.50;;;5.90;99.90;;;;;;5046861;28;20105;-74
2022/11/28 04:47:50;;;;;;;0.60;0.40;;;6.00;99.90;;;;;;5050126;28;20076;-74
2022/11/28 04:50:17;;;;;;;0.88;0.40;;;6.00;99.90;;;;;;5063062;28;20091;-74
2022/11/28 04:52:50;;;;;;;0.75;0.52;;;6.00;99.90;;;;;;5062384;28;20059;-74
2022/11/28 04:55:32;;;;;;;1.30;0.47;;;5.90;99.90;;;;;;5046595;28;20048;-74
2022/11/28 04:58:07;;;;;;;0.60;0.30;;;5.90;99.90;;;;;;5061832;28;20063;-74
2022/11/28 05:00:34;;;;;;;0.70;0.43;;;5.90;99.90;;;;;;5062998;28;20045;-74
2022/11/28 05:03:01;;;;;;;0.95;0.60;;;5.80;99.90;;;;;;5062084;28;20097;-74
2022/11/28 05:05:29;;;;;;;0.75;0.55;;;5.80;99.90;;;;;;5046377;28;20563;-74
2022/11/28 05:07:56;;;;;;;0.60;0.30;;;5.70;99.90;;;;;;5045880;28;20050;-74
2022/11/28 05:10:23;;;;;;;0.50;0.50;;;5.70;99.90;;;;;;5064230;28;20384;-74
2022/11/28 05:12:50;;;;;;;0.40;0.40;;;5.70;99.90;;;;;;5032441;28;20059;-76
2022/11/28 05:15:17;;;;;;;0.45;0.40;;;5.70;99.90;;;;;;5050434;28;20064;-74
2022/11/28 05:17:45;;;;;;;1.52;0.60;;;5.70;99.90;;;;;;5049518;28;20086;-76
2022/11/28 05:20:12;;;;;;;0.43;0.43;;;5.70;99.90;;;;;;5049043;28;20495;-75
2022/11/28 05:22:39;;;;;;;0.90;0.68;;;5.70;99.90;;;;;;5062799;28;20211;-76
2022/11/28 05:25:06;;;;;;;0.93;0.68;;;5.60;99.90;;;;;;5065770;28;20058;-75
2022/11/28 05:27:32;;;;;;;1.08;0.50;;;5.60;99.90;;;;;;5066687;28;20643;-75
2022/11/28 05:29:59;;;;;;;0.63;0.60;;;5.60;99.90;;;;;;5067956;28;20044;-75
2022/11/28 05:32:29;;;;;;;0.70;0.45;;;5.60;99.90;;;;;;5065615;28;20075;-75
2022/11/28 05:34:56;;;;;;;0.80;0.50;;;5.60;99.90;;;;;;5066839;28;20055;-76
2022/11/28 05:37:24;;;;;;;0.50;0.50;;;5.60;99.90;;;;;;5045696;28;20554;-76
2022/11/28 05:39:50;;;;;;;0.32;0.30;;;5.60;99.90;;;;;;5046175;28;20690;-76
2022/11/28 05:42:17;;;;;;;0.60;0.45;;;5.60;99.90;;;;;;5046086;28;20563;-76
2022/11/28 05:44:44;;;;;;;1.48;0.80;;;5.60;99.90;;;;;;5061391;28;20569;-76
2022/11/28 05:47:11;;;;;;;0.70;0.50;;;5.60;99.90;;;;;;5049201;28;20492;-75
2022/11/28 05:49:37;;;;;;;0.65;0.57;;;5.50;99.90;;;;;;5049501;28;20049;-75
2022/11/28 05:52:04;;;;;;;0.82;0.60;;;5.50;99.90;;;;;;5046140;28;20160;-76
2022/11/28 05:54:31;;;;;;;0.73;0.50;;;5.50;99.90;;;;;;5057248;28;20060;-76
2022/11/28 05:56:58;;;;;;;0.63;0.57;;;5.50;99.90;;;;;;5047791;28;20045;-76
2022/11/28 05:59:24;;;;;;;0.40;0.35;;;5.50;99.90;;;;;;5029732;28;20056;-76
2022/11/28 06:01:51;;;;;;;0.88;0.60;;;5.50;99.90;;;;;;5063705;28;20049;-76
2022/11/28 06:04:18;;;;;;;0.52;0.40;;;5.50;99.90;;;;;;5060402;28;20076;-76
2022/11/28 06:06:45;;;;;;;0.55;0.50;;;5.50;99.90;;;;;;5028525;28;20044;-75
2022/11/28 06:09:11;;;;;;;1.30;0.60;;;5.40;99.90;;;;;;5047926;28;20053;-75
2022/11/28 06:11:38;;;;;;;0.55;0.50;;;5.40;99.90;;;;;;5065346;28;20059;-76
2022/11/28 06:14:05;;;;;;;0.95;0.70;;;5.40;99.90;;;;;;5065909;28;20406;-75
2022/11/28 06:16:32;;;;;;;0.40;0.40;;;5.40;99.90;;;;;;5064417;28;20041;-75
2022/11/28 06:19:00;;;;;;;0.50;0.40;;;5.40;99.90;;;;;;5058470;28;20052;-75
2022/11/28 06:21:27;;;;;;;1.10;0.50;;;5.40;99.90;;;;;;5062106;28;20060;-75
2022/11/28 06:23:55;;;;;;;0.60;0.50;;;5.40;99.90;;;;;;5058001;28;20041;-75
2022/11/28 06:26:23;;;;;;;0.43;0.43;;;5.30;99.90;;;;;;5054967;28;20156;-75
2022/11/28 06:28:51;;;;;;;1.17;0.63;;;5.30;99.90;;;;;;5042577;28;20044;-76
2022/11/28 06:31:28;;;;;;;0.52;0.52;;;5.30;99.90;;;;;;5041632;28;20048;-76
2022/11/28 06:33:56;;;;;;;0.63;0.57;;;5.20;99.90;;;;;;5066260;28;20097;-76
2022/11/28 06:36:24;;;;;;;0.68;0.60;;;5.30;99.90;;;;;;5072108;28;20392;-75
2022/11/28 06:38:52;;;;;;;1.00;0.70;;;5.20;99.90;;;;;;5061983;28;20156;-75
2022/11/28 06:41:19;;;;;;;1.17;0.60;;;5.20;99.90;;;;;;5041959;28;20060;-75
2022/11/28 06:43:45;;;;;;;0.40;0.40;;;5.20;99.90;;;;;;5059738;28;20076;-75
2022/11/28 06:46:14;;;;;;;0.95;0.60;;;5.10;99.90;;;;;;5067257;28;20505;-74
2022/11/28 06:48:43;;;;;;;0.60;0.50;;;5.10;99.90;;;;;;5071414;28;20059;-74
2022/11/28 06:51:09;;;;;;;0.73;0.70;;;5.20;99.90;;;;;;5047063;28;20206;-75
2022/11/28 06:53:36;;;;;;;0.60;0.60;;;5.10;99.90;;;;;;5048999;28;20044;-75
2022/11/28 06:56:08;;;;;;;0.50;0.50;;;5.10;99.90;;;;;;5065490;28;20054;-75
2022/11/28 06:58:34;;;;;;;0.50;0.50;;;5.10;99.90;;;;;;5061916;28;20108;-75
2022/11/28 07:01:16;;;;;;;0.65;0.60;;;5.10;99.90;;;;;;5044076;28;20151;-75
2022/11/28 07:03:43;;;;;;;0.60;0.52;;;5.10;99.90;;;;;;5053478;28;20093;-75
2022/11/28 07:06:10;;;;;;;1.00;0.77;;;5.00;99.90;;;;;;5042459;28;20160;-75
2022/11/28 07:08:37;;;;;;;1.02;0.80;;;5.10;99.90;;;;;;5055682;28;20048;-75
2022/11/28 07:11:14;;;;;;;0.60;0.60;;;5.10;99.90;;;;;;5071294;28;20062;-75
2022/11/28 07:13:41;;;;;;;0.77;0.73;;;5.00;99.90;;;;;;5064056;28;20044;-75
2022/11/28 07:16:09;;;;;;;0.45;0.45;;;5.00;99.90;;;;;;5061938;28;20047;-76
2022/11/28 07:18:36;;;;;;;0.82;0.57;;;5.10;99.90;;;;;;5062150;28;20379;-76
2022/11/28 07:21:03;;;;;;;0.90;0.50;;;5.10;99.90;;;;;;5060838;28;20535;-76
2022/11/28 07:23:29;;;;;;;0.90;0.60;;;5.10;99.90;;;;;;5061777;28;20052;-76
2022/11/28 07:25:59;;;;;;;0.65;0.55;;;5.00;99.90;;;;;;5042996;28;20439;-75
2022/11/28 07:28:27;;;;;;;1.08;0.65;;;5.00;99.90;;;;;;5059668;28;20068;-75
2022/11/28 07:30:59;;;;;;;1.15;0.68;;;5.00;99.90;;;;;;5044510;28;20131;-75
2022/11/28 07:33:26;;;;;;;0.75;0.60;;;4.90;99.90;;;;;;5045015;28;20518;-76
2022/11/28 07:35:53;;;;;;;1.35;0.55;;;4.90;99.90;;;;;;5063174;28;20056;-76
2022/11/28 07:38:20;;;;;;;1.05;0.60;;;4.90;99.90;;;;;;5062414;28;20054;-76
2022/11/28 07:40:46;;;;;;;0.60;0.60;;;4.90;99.90;;;;;;5064146;28;20461;-75
2022/11/28 07:43:13;;;;;;;0.63;0.60;;;4.90;99.90;;;;;;5063087;28;20102;-76
2022/11/28 07:45:40;;;;;;;2.17;0.80;;;4.90;99.90;;;;;;5064099;28;20048;-75
2022/11/28 07:48:25;;;;;;;0.70;0.50;;;5.00;99.90;;;;;;5062139;28;20045;-76
2022/11/28 07:50:52;;;;;;;0.60;0.60;;;5.00;99.90;;;;;;5061472;28;20136;-75
2022/11/28 07:53:19;;;;;;;0.35;0.35;;;5.00;99.90;;;;;;5058947;28;20079;-76
2022/11/28 07:55:46;;;;;;;0.82;0.75;;;5.00;99.90;;;;;;5042479;28;20151;-76
2022/11/28 07:58:13;;;;;;;0.82;0.45;;;5.00;99.90;;;;;;5038179;28;20041;-76
2022/11/28 08:00:39;;;;;;;0.90;0.50;;;5.00;99.90;;;;;;5049545;28;20488;-76
2022/11/28 08:03:06;;;;;;;0.68;0.60;;;5.00;99.90;;;;;;5057993;28;20066;-76
2022/11/28 08:05:33;;;;;;;0.60;0.60;;;5.00;99.90;;;;;;5060772;28;20052;-75
2022/11/28 08:07:59;;;;;;;1.00;0.60;;;5.10;99.90;;;;;;5059530;28;20325;-76
2022/11/28 08:10:26;;;;;;;0.55;0.52;;;5.00;99.90;;;;;;5056312;28;20056;-75
2022/11/28 08:12:53;;;;;;;0.85;0.50;;;5.00;99.90;;;;;;5059146;28;20220;-75
2022/11/28 08:15:19;;;;;;;0.47;0.47;;;5.10;99.90;;;;;;5060605;28;20108;-75
2022/11/28 08:17:46;;;;;;;0.40;0.40;;;5.10;99.90;;;;;;5041288;28;20048;-76
2022/11/28 08:20:13;;;;;;;0.70;0.70;;;5.20;99.90;;;;;;5042268;28;20063;-75
2022/11/28 08:22:40;;;;;;;0.45;0.45;;;5.10;99.90;;;;;;5041775;28;20064;-75
2022/11/28 08:25:07;;;;;;;0.50;0.47;;;5.20;99.90;;;;;;5059363;28;20048;-75
2022/11/28 08:27:34;;;;;;;0.77;0.50;;;5.20;99.90;;;;;;5058765;28;20495;-75
2022/11/28 08:30:01;;;;;;;0.35;0.35;;;5.20;99.90;;;;;;5044220;28;20044;-75
2022/11/28 08:32:29;;;;;;;0.50;0.50;;;5.30;99.90;;;;;;5061981;28;20045;-76
2022/11/28 08:34:56;;;;;;;0.77;0.60;;;5.30;99.90;;;;;;5046164;28;20083;-75
2022/11/28 08:37:22;;;;;;;0.80;0.70;;;5.30;99.90;;;;;;5045570;28;20382;-75
2022/11/28 08:39:49;;;;;;;0.50;0.50;;;5.40;99.90;;;;;;5062615;28;20052;-75
2022/11/28 08:42:16;;;;;;;2.58;0.60;;;5.40;99.90;;;;;;5028989;28;20055;-75
2022/11/28 08:44:42;;;;;;;0.70;0.57;;;5.50;99.90;;;;;;5045259;28;20053;-76
2022/11/28 08:47:09;;;;;;;0.63;0.60;;;5.60;99.90;;;;;;5066194;28;20092;-75
2022/11/28 08:49:36;;;;;;;0.45;0.45;;;5.60;99.90;;;;;;5067501;28;20274;-76
2022/11/28 08:52:04;;;;;;;0.80;0.60;;;5.60;99.90;;;;;;5064767;28;20059;-76
2022/11/28 08:54:30;;;;;;;0.77;0.60;;;5.60;99.90;;;;;;5046217;28;20092;-76
2022/11/28 08:56:57;;;;;;;0.50;0.50;;;5.70;99.90;;;;;;5062790;28;20064;-76
2022/11/28 08:59:24;;;;;;;0.85;0.70;;;5.70;99.90;;;;;;5062159;28;20099;-75
2022/11/28 09:01:52;;;;;;;1.08;0.60;;;5.80;99.90;;;;;;5062423;28;20056;-76
2022/11/28 09:04:20;;;;;;;1.20;0.70;;;5.80;99.90;;;;;;5029302;28;20468;-75
2022/11/28 09:06:47;;;;;;;0.50;0.50;;;5.90;99.90;;;;;;5063468;28;20075;-76
2022/11/28 09:09:13;;;;;;;1.15;0.85;;;5.90;99.90;;;;;;5067631;28;20154;-75
2022/11/28 09:11:40;;;;;;;0.68;0.60;;;6.00;99.90;;;;;;5049202;28;20052;-75
2022/11/28 09:14:07;;;;;;;0.80;0.63;;;6.00;99.90;;;;;;5048809;28;20080;-76
2022/11/28 09:16:34;;;;;;;0.60;0.60;;;6.00;99.90;;;;;;5049156;28;20048;-76
2022/11/28 09:19:01;;;;;;;0.63;0.60;;;6.10;99.90;;;;;;5063768;28;20121;-75
2022/11/28 09:21:28;;;;;;;0.50;0.50;;;6.10;99.90;;;;;;5068355;28;20071;-75
2022/11/28 09:23:58;;;;;;;0.63;0.63;;;6.20;99.90;;;;;;5047020;28;20037;-76
2022/11/28 09:26:25;;;;;;;1.30;0.65;;;6.20;99.90;;;;;;5049224;28;20522;-76
2022/11/28 09:28:52;;;;;;;1.65;1.00;;;6.30;99.90;;;;;;5040689;28;20223;-75
2022/11/28 09:31:18;;;;;;;2.13;1.27;;;6.30;99.90;;;;;;5041030;28;20622;-76
2022/11/28 09:33:47;;;;;;;1.88;1.15;;;6.30;99.90;;;;;;5056852;28;20051;-76
2022/11/28 09:36:18;;;;;;;1.63;1.23;;;6.40;99.90;;;;;;5061306;28;20040;-76
2022/11/28 09:38:45;;;;;;;1.17;0.98;;;6.50;99.90;;;;;;5047152;28;20093;-76
2022/11/28 09:41:31;;;;;;;0.80;0.70;;;6.50;99.90;;;;;;5061145;28;20530;-76
2022/11/28 09:44:21;;;;;;;1.52;0.77;;;6.60;99.90;;;;;;5061027;28;20048;-75
2022/11/28 09:46:50;;;;;;;1.90;0.95;;;6.70;99.90;;;;;;5056041;28;20078;-76
2022/11/28 09:49:27;;;;;;;0.70;0.60;;;6.90;99.90;;;;;;5061204;28;20151;-76
2022/11/28 09:51:56;;;;;;;0.60;0.60;;;7.00;99.90;;;;;;5058055;28;20049;-76
2022/11/28 09:54:43;;;;;;;1.02;0.40;;;7.20;99.90;;;;;;5061925;28;20065;-76
2022/11/28 09:57:17;;;;;;;0.47;0.47;;;7.30;99.90;;;;;;5046604;28;20044;-76
2022/11/28 09:59:43;;;;;;;0.77;0.77;;;7.40;99.90;;;;;;5062531;28;20488;-76
2022/11/28 10:02:22;;;;;;;1.17;1.02;;;7.50;99.90;;;;;;5028181;28;20085;-76
2022/11/28 10:05:15;;;;;;;0.73;0.70;;;7.60;99.90;;;;;;5045375;28;20511;-76
2022/11/28 10:08:19;;;;;;;0.82;0.60;;;7.70;99.90;;;;;;5061189;28;20140;-76
2022/11/28 10:10:53;;;;;;;0.38;0.38;;;7.80;99.90;;;;;;5062826;28;20048;-75
2022/11/28 10:13:41;;;;;;;0.60;0.60;;;7.90;99.90;;;;;;5060949;28;20114;-76
2022/11/28 10:16:46;;;;;;;0.85;0.52;;;8.00;99.90;;;;;;5061239;28;20070;-75
2022/11/28 10:19:15;;;;;;;1.05;0.50;;;8.10;99.90;;;;;;5045834;28;20078;-76
2022/11/28 10:22:02;;;;;;;0.43;0.43;;;8.20;99.90;;;;;;5061103;28;20151;-76
2022/11/28 10:24:53;;;;;;;0.45;0.43;;;8.30;99.90;;;;;;5028463;28;20368;-76
2022/11/28 10:27:20;;;;;;;0.95;0.57;;;8.40;99.90;;;;;;5060891;28;20167;-76
2022/11/28 10:30:22;;;;;;;0.40;0.40;;;8.50;99.90;;;;;;5061678;28;20060;-75
2022/11/28 10:33:16;;;;;;;1.23;0.85;;;8.60;99.90;;;;;;5054954;28;20528;-75
2022/11/28 10:35:54;;;;;;;0.40;0.40;;;8.70;99.90;;;;;;5062089;28;20517;-76
2022/11/28 10:38:24;;;;;;;0.70;0.50;;;8.80;99.90;;;;;;5045924;28;20167;-76
2022/11/28 10:41:00;;;;;;;0.65;0.50;;;8.90;99.90;;;;;;5028274;28;20246;-76
2022/11/28 10:43:46;;;;;;;0.93;0.50;;;9.00;99.90;;;;;;5027361;28;20048;-76
2022/11/28 10:46:33;;;;;;;0.52;0.52;;;9.10;99.90;;;;;;5062229;28;20067;-76
2022/11/28 10:49:08;;;;;;;0.40;0.40;;;9.20;99.90;;;;;;5040159;28;20086;-75
2022/11/28 10:51:50;;;;;;;1.10;0.70;;;9.30;99.90;;;;;;5061830;28;20048;-76
2022/11/28 10:54:35;;;;;;;0.85;0.50;;;9.40;99.90;;;;;;5061879;28;20064;-76
2022/11/28 10:57:23;;;;;;;0.52;0.50;;;9.50;99.90;;;;;;5060208;28;20143;-76
2022/11/28 10:59:58;;;;;;;0.63;0.63;;;9.50;99.90;;;;;;5046335;28;20523;-76
2022/11/28 11:02:48;;;;;;;0.50;0.50;;;9.60;99.90;;;;;;5060011;28;20198;-75
2022/11/28 11:05:32;;;;;;;0.68;0.60;;;9.60;99.90;;;;;;5045091;28;20048;-75
2022/11/28 11:08:03;;;;;;;;;;;9.70;99.90;;;;;;5026671;28;20045;-76
2022/11/28 11:10:48;;;;;;;0.57;0.57;;;9.80;99.90;;;;;;5044067;28;19931;-76
2022/11/28 11:13:25;;;;;;;0.98;0.30;;;9.90;99.90;;;;;;5059660;28;20400;-76
2022/11/28 11:16:04;;;;;;;0.70;0.52;;;10.00;99.90;;;;;;5061929;28;20044;-75
2022/11/28 11:18:36;;;;;;;0.73;0.70;;;10.10;99.90;;;;;;5043723;28;20044;-76
2022/11/28 11:21:18;;;;;;;1.52;0.90;;;10.20;99.90;;;;;;5059965;28;20367;-76
2022/11/28 11:23:46;;;;;;;1.17;0.70;;;10.40;99.90;;;;;;5060043;28;20192;-75
2022/11/28 11:26:26;;;;;;;1.77;0.80;;;10.50;99.90;;;;;;5059898;28;20052;-75
2022/11/28 11:28:53;;;;;;;1.65;0.80;;;10.60;99.90;;;;;;5044157;28;20071;-76
2022/11/28 11:31:41;;;;;;;1.92;1.10;;;10.70;99.90;;;;;;5058994;28;20139;-75
2022/11/28 11:34:19;;;;;;;1.00;0.73;;;10.80;99.90;;;;;;5042384;28;20055;-76
2022/11/28 11:36:46;;;;;;;1.58;0.70;;;10.90;99.90;;;;;;5043473;28;20370;-76
2022/11/28 11:39:12;;;;;;;0.80;0.60;;;11.00;99.90;;;;;;5060869;28;20131;-76
2022/11/28 11:41:44;;;;;;;1.05;0.60;;;11.00;99.90;;;;;;5059036;28;20060;-76
2022/11/28 11:44:13;;;;;;;0.60;0.60;;;11.00;99.90;;;;;;5058513;28;20055;-76
2022/11/28 11:46:56;;;;;;;0.85;0.57;;;11.00;99.90;;;;;;5060550;28;20044;-76
2022/11/28 11:49:29;;;;;;;1.05;0.60;;;10.90;99.90;;;;;;5042762;28;20053;-76
2022/11/28 11:51:57;;;;;;;0.87;0.57;;;10.90;99.90;;;;;;5058941;28;20045;-76
2022/11/28 11:54:25;;;;;;;0.60;0.47;;;10.90;99.90;;;;;;5042316;28;20145;-76
2022/11/28 11:56:51;;;;;;;0.52;0.40;;;10.90;99.90;;;;;;5058965;28;20044;-75
2022/11/28 11:59:42;;;;;;;0.75;0.50;;;10.90;99.90;;;;;;5060016;28;20131;-76
2022/11/28 12:02:31;;;;;;;0.40;0.40;;;10.90;99.90;;;;;;5058988;28;20052;-76
2022/11/28 12:05:19;;;;;;;0.43;0.43;;;11.10;99.90;;;;;;5027655;28;20044;-76
2022/11/28 12:08:05;;;;;;;1.05;0.73;;;11.20;99.90;;;;;;5059690;28;20283;-76
2022/11/28 12:10:47;;;;;;;0.47;0.47;;;11.30;99.90;;;;;;5059004;28;20129;-76
2022/11/28 12:13:18;;;;;;;1.05;0.57;;;11.40;99.90;;;;;;5043389;28;20052;-76
2022/11/28 12:16:12;;;;;;;0.50;0.50;;;11.50;99.90;;;;;;5026748;28;20075;-76
2022/11/28 12:19:05;;;;;;;0.50;0.50;;;11.70;99.90;;;;;;5040477;28;20040;-75
2022/11/28 12:21:35;;;;;;;0.50;0.50;;;12.00;99.90;;;;;;5070909;28;20052;-76
2022/11/28 12:24:11;;;;;;;1.15;0.70;;;12.30;99.90;;;;;;5055024;28;20394;-76
2022/11/28 12:26:57;;;;;;;0.77;0.60;;;12.50;99.90;;;;;;5036350;28;20057;-76
2022/11/28 12:29:27;;;;;;;0.80;0.60;;;12.50;99.90;;;;;;5053547;28;20048;-76
2022/11/28 12:32:07;;;;;;;1.67;0.63;;;12.60;99.90;;;;;;5047495;28;20469;-76
2022/11/28 12:34:48;;;;;;;0.63;0.60;;;12.60;99.90;;;;;;5059511;28;20383;-75
2022/11/28 12:37:44;;;;;;;0.47;0.47;;;12.50;99.90;;;;;;5064693;28;20052;-76
2022/11/28 12:40:37;;;;;;;0.57;0.50;;;12.40;99.90;;;;;;5052783;28;20285;-76
2022/11/28 12:43:26;;;;;;;0.70;0.50;;;12.30;99.90;;;;;;5062238;28;20159;-76
2022/11/28 12:46:11;;;;;;;0.65;0.40;;;12.30;99.90;;;;;;5042371;28;20064;-75
2022/11/28 12:48:59;;;;;;;0.95;0.52;;;12.20;99.90;;;;;;5035843;28;20060;-75
2022/11/28 12:51:47;;;;;;;1.05;0.70;;;12.10;99.90;;;;;;5053288;28;20053;-75
2022/11/28 12:54:47;;;;;;;0.70;0.60;;;12.20;99.90;;;;;;5043846;28;20120;-75
2022/11/28 12:57:40;;;;;;;0.88;0.57;;;12.20;99.90;;;;;;5019356;28;20070;-75
2022/11/28 13:00:11;;;;;;;1.40;0.73;;;12.20;99.90;;;;;;5055336;28;20059;-75
2022/11/28 13:03:07;;;;;;;1.38;0.70;;;12.20;99.90;;;;;;5054758;28;20095;-75
2022/11/28 13:05:55;;;;;;;0.60;0.60;;;12.10;99.90;;;;;;5031255;28;20581;-75
2022/11/28 13:08:46;;;;;;;1.02;0.68;;;11.90;99.90;;;;;;5029106;28;20045;-75
2022/11/28 13:11:36;;;;;;;0.70;0.70;;;11.80;99.90;;;;;;5051665;28;20529;-74
2022/11/28 13:14:31;;;;;;;1.20;0.80;;;11.70;99.90;;;;;;5046756;28;20059;-74
2022/11/28 13:17:15;;;;;;;1.25;0.80;;;11.70;99.90;;;;;;5036518;28;20132;-75
2022/11/28 13:19:58;;;;;;;0.70;0.70;;;11.60;99.90;;;;;;5052995;28;20143;-75
2022/11/28 13:22:32;;;;;;;1.95;0.95;;;11.60;99.90;;;;;;5023312;28;20052;-74
2022/11/28 13:25:18;;;;;;;0.52;0.50;;;11.60;99.90;;;;;;5053199;28;20443;-75
2022/11/28 13:28:03;;;;;;;0.73;0.60;;;11.60;99.90;;;;;;5053918;28;20148;-74